»·PEaware :: SWA1 KLAX-KLAS

SWA1 :: KLAX-KLAS

FLIGHT INFORMATION

Flight Status: Arrived
Operator:
Southwest Airlines
More flights by this operator :: More flights under this callsign
Pilot: Drew L. (13237)
Aircraft: BOEING 737-200
(B732)
More flights by this aircraft type
Origin: KLAX Los Angeles Intl
United States
Destination: KLAS McCarran Intl
United States
More flights between these airports :: More routes between these airports
Route: +LOOP9 DAG CLARR2
File this flight plan on PilotEdge
Remarks:
Altitude:
(Current/Filed)
31,000ft
Speed:
(Current/Filed)
440kts
Departed: 24-Apr-17 06:31 PM
Arrived: 24-Apr-17 07:17 PM
Distance/Time
Traveled:
205nm/0:46
Distance/Time
To Go:
Arrived

Flight Plot

Page will automatically refresh every two minutes.

Flight plan parsing failed; only flown route is shown


Map Options




Map Legend


Flown Route
Filed Route
Departure Airport
Arrival Airport
Navaid (VOR, NDB)
Fix

Horizontal Profiles

Position Reports

Time Latitude Longitude Heading Altitude Ground
Speed
24-Apr-17 18:12 33.933517 -118.396873 287 134ft 0kts
24-Apr-17 18:13 33.933517 -118.396873 287 134ft 0kts
24-Apr-17 18:14 33.933517 -118.396873 287 134ft 0kts
24-Apr-17 18:15 33.933517 -118.396873 287 134ft 0kts
24-Apr-17 18:16 33.933517 -118.396873 287 134ft 0kts
24-Apr-17 18:17 33.933517 -118.396873 287 134ft 0kts
24-Apr-17 18:18 33.933517 -118.396873 287 134ft 0kts
24-Apr-17 18:19 33.933517 -118.396873 287 134ft 0kts
24-Apr-17 18:20 33.933517 -118.396873 287 134ft 0kts
24-Apr-17 18:21 33.933517 -118.396873 287 134ft 0kts
24-Apr-17 18:22 33.933517 -118.396873 287 134ft 0kts
24-Apr-17 18:23 33.933517 -118.396873 287 134ft 0kts
24-Apr-17 18:24 33.933517 -118.396873 287 134ft 0kts
24-Apr-17 18:25 33.933517 -118.396873 287 134ft 0kts
24-Apr-17 18:26 33.933517 -118.396873 287 134ft 0kts
24-Apr-17 18:27 33.934300 -118.398203 11 134ft 7kts
24-Apr-17 18:28 33.934714 -118.396632 83 134ft 4kts
24-Apr-17 18:29 33.935079 -118.392957 83 134ft 17kts
24-Apr-17 18:30 33.935559 -118.388303 83 134ft 11kts
24-Apr-17 18:31 33.935897 -118.384970 82 134ft 15kts
24-Apr-17 18:32 33.937225 -118.384070 262 134ft 19kts
24-Apr-17 18:33 33.933378 -118.420576 261 1512ft 141kts
24-Apr-17 18:34 33.921716 -118.476138 250 3663ft 198kts
24-Apr-17 18:35 33.894779 -118.544937 248 5517ft 270kts
24-Apr-17 18:36 33.831811 -118.574526 152 8944ft 302kts
24-Apr-17 18:37 33.814340 -118.478143 53 10725ft 350kts
24-Apr-17 18:38 33.882795 -118.397525 37 13695ft 356kts
24-Apr-17 18:39 33.956143 -118.315263 35 16089ft 372kts
24-Apr-17 18:40 34.030912 -118.226642 42 18204ft 395kts
24-Apr-17 18:41 34.098220 -118.118379 48 20128ft 416kts
24-Apr-17 18:42 34.163249 -118.002613 49 21906ft 432kts
24-Apr-17 18:43 34.229613 -117.879742 49 23523ft 448kts
24-Apr-17 18:44 34.298215 -117.751248 50 24587ft 477kts
24-Apr-17 18:45 34.371638 -117.612730 50 26055ft 497kts
24-Apr-17 18:46 34.446459 -117.471070 49 27678ft 507kts
24-Apr-17 18:47 34.522507 -117.326506 51 29109ft 519kts
24-Apr-17 18:48 34.616378 -117.203574 35 30368ft 504kts
24-Apr-17 18:49 34.705764 -117.067307 47 30660ft 522kts
24-Apr-17 18:50 34.785227 -116.919943 49 30646ft 523kts
24-Apr-17 18:51 34.862874 -116.770960 49 30644ft 522kts
24-Apr-17 18:52 34.940181 -116.621341 50 30656ft 522kts
24-Apr-17 18:53 35.009537 -116.467266 56 30505ft 532kts
24-Apr-17 18:54 35.075537 -116.306710 57 30454ft 532kts
24-Apr-17 18:55 35.150547 -116.159980 28 28960ft 493kts
24-Apr-17 18:56 35.270775 -116.104217 9 27112ft 458kts
24-Apr-17 18:57 35.379460 -116.016638 33 25337ft 479kts
24-Apr-17 18:58 35.473753 -115.902269 39 23692ft 477kts
24-Apr-17 18:59 35.557570 -115.792107 38 23987ft 412kts
24-Apr-17 19:00 35.648362 -115.710222 32 20768ft 437kts
24-Apr-17 19:01 35.733914 -115.611243 37 19418ft 419kts
24-Apr-17 19:02 35.820943 -115.527716 1 17622ft 372kts
24-Apr-17 19:03 35.921499 -115.517890 356 15715ft 359kts
24-Apr-17 19:04 36.018409 -115.510778 357 14380ft 335kts
24-Apr-17 19:05 36.107286 -115.521214 7 12466ft 337kts
24-Apr-17 19:06 36.155879 -115.428629 98 10969ft 359kts
24-Apr-17 19:07 36.107504 -115.333762 132 10615ft 320kts
24-Apr-17 19:08 36.032801 -115.289951 199 9258ft 296kts
24-Apr-17 19:09 35.961397 -115.263875 114 7920ft 306kts
24-Apr-17 19:10 35.954871 -115.162441 92 6795ft 295kts
24-Apr-17 19:11 35.955383 -115.064806 91 6260ft 265kts
24-Apr-17 19:12 35.972544 -114.984636 46 5750ft 230kts
24-Apr-17 19:13 36.029143 -114.967457 357 4721ft 199kts
24-Apr-17 19:14 36.084476 -114.967015 357 3630ft 184kts
24-Apr-17 19:15 36.089248 -115.010877 246 2628ft 165kts
24-Apr-17 19:16 36.072604 -115.060998 259 2460ft 151kts
24-Apr-17 19:17 36.073593 -115.108969 268 2420ft 135kts
24-Apr-17 19:18 36.073713 -115.147295 277 2110ft 46kts
24-Apr-17 19:19 36.076259 -115.151925 330 2123ft 13kts
24-Apr-17 19:20 36.078636 -115.149173 97 2108ft 16kts
24-Apr-17 19:21 36.079932 -115.147096 56 2097ft 0kts
24-Apr-17 19:22 36.079932 -115.147096 56 2097ft 0kts
24-Apr-17 19:23 36.079932 -115.147096 56 2097ft 0kts
24-Apr-17 19:24 36.079932 -115.147096 56 2097ft 0kts
24-Apr-17 19:25 36.079932 -115.147096 56 2097ft 0kts
24-Apr-17 19:26 36.079932 -115.147096 56 2097ft 0kts

Navigation Log

Ident Type
Flight plan parsing failed, navigation log unavailable